Time;durP1;ratioP1;P1;durP2;ratioP2;P2;SDS_P1;SDS_P2;PMS_P1;PMS_P2;Temp;Humidity;BMP_temperature;BMP_pressure;BME280_temperature;BME280_humidity;BME280_pressure;Samples;Min_cycle;Max_cycle;Signal;HPM_P1;HPM_P2
2024/03/11 00:02:07;;;;;;;23.70;14.15;;;;;;;15.02;56.40;99688.66;5026077;27;97594;-72
2024/03/11 00:04:34;;;;;;;22.90;13.82;;;;;;;15.02;56.51;99693.13;5029845;27;97260;-72
2024/03/11 00:07:01;;;;;;;27.05;15.10;;;;;;;14.99;56.98;99682.69;5024047;27;99849;-72
2024/03/11 00:09:32;;;;;;;22.30;12.82;;;;;;;15.16;56.42;99693.00;5024206;27;99433;-73
2024/03/11 00:12:01;;;;;;;23.88;13.15;;;;;;;15.21;56.18;99690.00;5026309;27;98502;-71
2024/03/11 00:14:29;;;;;;;23.55;13.18;;;;;;;15.16;56.37;99688.50;5025375;27;97062;-72
2024/03/11 00:16:57;;;;;;;23.92;13.30;;;;;;;15.25;56.21;99694.16;5027907;27;99601;-73
2024/03/11 00:19:24;;;;;;;25.10;13.30;;;;;;;15.16;56.58;99685.84;5022450;27;100050;-73
2024/03/11 00:21:53;;;;;;;20.42;12.38;;;;;;;14.96;57.35;99696.22;5025613;27;98545;-72
2024/03/11 00:24:19;;;;;;;23.73;13.38;;;;;;;15.05;57.17;99703.53;5029202;27;96785;-71
2024/03/11 00:26:46;;;;;;;20.98;13.07;;;;;;;15.25;56.63;99699.47;5028227;27;98889;-71
2024/03/11 00:29:14;;;;;;;20.48;12.65;;;;;;;15.16;57.04;99701.00;5023097;27;98855;-72
2024/03/11 00:31:40;;;;;;;24.00;13.30;;;;;;;15.22;56.97;99705.03;5026881;27;96762;-73
2024/03/11 00:34:07;;;;;;;22.13;13.05;;;;;;;15.20;56.88;99702.47;5022734;27;96829;-73
2024/03/11 00:36:34;;;;;;;24.98;13.85;;;;;;;15.30;56.52;99707.97;5025564;27;99443;-72
2024/03/11 00:39:01;;;;;;;24.70;12.80;;;;;;;15.29;56.81;99700.97;5022254;27;98778;-72
2024/03/11 00:41:28;;;;;;;23.30;13.00;;;;;;;15.28;56.99;99702.78;5033679;27;96839;-72
2024/03/11 00:43:54;;;;;;;22.92;12.45;;;;;;;15.02;57.93;99709.94;5031325;27;97288;-72
2024/03/11 00:46:22;;;;;;;22.73;12.18;;;;;;;15.21;57.58;99698.84;5027038;27;99835;-72
2024/03/11 00:48:49;;;;;;;25.90;13.23;;;;;;;15.24;57.43;99701.28;5027773;27;98853;-72
2024/03/11 00:51:17;;;;;;;23.73;12.75;;;;;;;15.08;58.26;99704.19;5022926;27;97729;-73
2024/03/11 00:53:43;;;;;;;23.08;13.65;;;;;;;14.73;59.72;99695.16;5032305;27;97220;-73
2024/03/11 00:56:10;;;;;;;23.10;11.88;;;;;;;14.82;59.68;99701.66;5022258;27;99255;-73
2024/03/11 00:58:37;;;;;;;26.00;12.98;;;;;;;14.97;59.12;99706.72;5031011;27;98839;-73
2024/03/11 01:01:05;;;;;;;22.30;12.73;;;;;;;14.92;59.56;99700.88;5025637;27;97215;-72
2024/03/11 01:03:32;;;;;;;18.35;11.75;;;;;;;14.97;59.47;99697.91;5025761;27;98006;-72
2024/03/11 01:05:59;;;;;;;21.70;13.32;;;;;;;14.88;59.92;99690.59;5025190;27;98762;-72
2024/03/11 01:08:26;;;;;;;23.58;12.75;;;;;;;14.91;59.88;99690.34;5031170;27;101702;-73
2024/03/11 01:10:53;;;;;;;25.42;13.25;;;;;;;15.08;59.26;99685.56;5023390;27;97650;-73
2024/03/11 01:13:19;;;;;;;22.27;13.10;;;;;;;14.92;60.00;99689.41;5025640;27;98043;-73
2024/03/11 01:15:46;;;;;;;21.52;12.48;;;;;;;14.89;60.07;99690.47;5027113;27;98879;-74
2024/03/11 01:18:14;;;;;;;20.85;12.38;;;;;;;14.93;60.04;99669.81;5026384;27;98780;-72
2024/03/11 01:20:41;;;;;;;26.90;12.77;;;;;;;14.94;60.09;99668.88;5025887;27;96773;-72
2024/03/11 01:23:08;;;;;;;24.67;13.52;;;;;;;14.83;60.40;99663.47;5019355;27;97809;-73
2024/03/11 01:25:36;;;;;;;23.10;12.90;;;;;;;15.02;59.84;99658.53;5026970;27;99141;-73
2024/03/11 01:28:03;;;;;;;21.58;12.48;;;;;;;14.83;60.40;99650.16;5024316;27;102111;-73
2024/03/11 01:30:30;;;;;;;22.17;12.35;;;;;;;14.86;60.48;99649.94;5029305;27;97292;-73
2024/03/11 01:32:56;;;;;;;26.75;13.13;;;;;;;14.81;60.66;99652.06;5020622;27;97387;-73
2024/03/11 01:35:22;;;;;;;26.30;12.85;;;;;;;14.71;61.07;99665.13;5021921;27;99216;-73
2024/03/11 01:37:50;;;;;;;22.08;12.85;;;;;;;14.74;61.14;99663.13;5025056;27;98775;-72
2024/03/11 01:40:16;;;;;;;21.60;12.15;;;;;;;14.59;61.90;99658.88;5021280;27;96899;-73
2024/03/11 01:42:43;;;;;;;19.48;11.98;;;;;;;14.59;62.09;99668.66;5026990;27;96829;-73
2024/03/11 01:45:12;;;;;;;23.13;12.80;;;;;;;14.56;62.14;99659.09;5030240;27;97551;-73
2024/03/11 01:47:38;;;;;;;24.25;13.07;;;;;;;14.76;61.53;99663.03;5028826;27;98809;-73
2024/03/11 01:50:07;;;;;;;23.80;12.73;;;;;;;14.55;62.38;99672.50;5019676;27;96880;-73
2024/03/11 01:52:36;;;;;;;22.73;12.35;;;;;;;14.48;62.90;99679.19;5025974;27;97530;-73
2024/03/11 01:55:05;;;;;;;20.42;12.18;;;;;;;14.65;62.20;99673.53;5023335;27;99096;-72
2024/03/11 01:57:34;;;;;;;24.27;13.40;;;;;;;14.30;63.29;99689.22;5027453;27;98848;-71
2024/03/11 02:00:00;;;;;;;23.58;12.63;;;;;;;14.72;62.26;99682.81;5027340;27;100325;-71
2024/03/11 02:05:48;;;;;;;21.77;12.48;;;;;;;14.50;63.19;99667.50;5016574;27;97069;-72
2024/03/11 02:08:15;;;;;;;25.98;13.02;;;;;;;14.64;62.70;99656.75;5021165;27;98889;-72
2024/03/11 02:10:43;;;;;;;24.98;12.63;;;;;;;14.75;62.22;99664.84;5021958;27;96776;-72
2024/03/11 02:13:09;;;;;;;22.30;12.32;;;;;;;14.68;62.48;99663.56;5024669;27;97299;-73
2024/03/11 02:15:36;;;;;;;19.65;12.35;;;;;;;14.53;62.96;99669.94;5022320;27;99087;-72
2024/03/11 02:18:05;;;;;;;21.83;13.13;;;;;;;14.70;62.61;99674.09;5023788;27;98582;-72
2024/03/11 02:20:31;;;;;;;21.02;12.60;;;;;;;14.77;62.27;99666.56;5024190;27;96865;-73
2024/03/11 02:22:58;;;;;;;20.02;12.35;;;;;;;14.86;62.38;99661.44;5015523;27;98084;-73
2024/03/11 02:25:27;;;;;;;26.65;13.63;;;;;;;14.86;62.06;99671.22;5025026;27;99006;-73
2024/03/11 02:27:55;;;;;;;20.73;12.00;;;;;;;15.00;61.80;99669.28;5025257;27;98879;-73
2024/03/11 02:30:21;;;;;;;22.33;12.20;;;;;;;15.00;61.76;99668.44;5019525;27;96697;-73
2024/03/11 02:32:48;;;;;;;22.02;12.60;;;;;;;15.05;61.53;99671.63;5026627;27;96966;-72
2024/03/11 02:35:15;;;;;;;17.35;11.82;;;;;;;15.10;61.27;99677.44;5022874;27;99303;-73
2024/03/11 02:37:43;;;;;;;20.67;12.57;;;;;;;15.15;60.86;99662.03;5024576;27;98466;-73
2024/03/11 02:40:10;;;;;;;22.67;12.70;;;;;;;15.10;61.23;99672.97;5024859;27;97320;-72
2024/03/11 02:42:39;;;;;;;21.17;12.10;;;;;;;15.04;61.54;99678.75;5028222;27;97339;-73
2024/03/11 02:45:07;;;;;;;23.10;12.88;;;;;;;15.24;60.97;99669.34;5024271;27;99216;-73
2024/03/11 02:47:34;;;;;;;23.27;12.45;;;;;;;15.20;60.98;99667.88;5025116;27;101828;-73
2024/03/11 02:50:01;;;;;;;21.65;12.65;;;;;;;15.00;61.61;99674.59;5024119;27;97080;-73
2024/03/11 02:52:27;;;;;;;20.88;12.45;;;;;;;15.14;61.15;99670.97;5025477;27;96923;-71
2024/03/11 02:54:54;;;;;;;20.77;11.85;;;;;;;14.96;61.68;99677.59;5016263;27;98963;-71
2024/03/11 02:57:22;;;;;;;21.50;12.48;;;;;;;14.92;61.82;99668.13;5025403;27;99107;-72
2024/03/11 02:59:51;;;;;;;21.95;12.80;;;;;;;15.09;61.15;99665.13;5021220;27;98089;-72
2024/03/11 03:02:18;;;;;;;20.13;12.25;;;;;;;15.05;61.47;99653.00;5025259;27;97576;-72
2024/03/11 03:04:45;;;;;;;19.58;12.45;;;;;;;15.11;61.53;99656.06;5020966;27;101352;-72
2024/03/11 03:07:13;;;;;;;28.20;12.35;;;;;;;15.20;61.03;99659.91;5023196;27;99253;-72
2024/03/11 03:09:39;;;;;;;23.55;11.95;;;;;;;15.07;61.59;99656.41;5024876;27;96755;-72
2024/03/11 03:12:09;;;;;;;18.60;11.82;;;;;;;15.12;61.17;99652.44;5023155;27;97229;-72
2024/03/11 03:14:36;;;;;;;22.90;12.82;;;;;;;15.14;61.27;99658.53;5021932;27;99240;-72
2024/03/11 03:17:04;;;;;;;21.88;12.57;;;;;;;15.03;61.98;99663.72;5022080;27;98986;-71
2024/03/11 03:19:30;;;;;;;22.90;11.98;;;;;;;15.01;62.20;99665.69;5024382;27;97080;-72
2024/03/11 03:21:56;;;;;;;22.42;12.48;;;;;;;14.90;62.62;99662.91;5022102;27;97084;-72
2024/03/11 03:24:23;;;;;;;23.63;12.60;;;;;;;14.74;63.17;99673.78;5024745;27;100602;-71
2024/03/11 03:26:50;;;;;;;20.80;12.07;;;;;;;14.91;62.95;99669.91;5025451;27;98813;-72
2024/03/11 03:29:16;;;;;;;19.77;11.63;;;;;;;15.07;62.32;99656.41;5020389;27;96827;-72
2024/03/11 03:31:42;;;;;;;19.55;12.13;;;;;;;15.05;62.46;99653.84;5025733;27;98110;-72
2024/03/11 03:34:10;;;;;;;17.25;11.13;;;;;;;14.96;62.98;99657.19;5029358;27;99186;-72
2024/03/11 03:36:38;;;;;;;18.95;12.10;;;;;;;14.98;62.97;99655.25;5024061;27;99164;-71
2024/03/11 03:39:05;;;;;;;20.58;12.10;;;;;;;14.79;63.57;99665.47;5022406;27;96768;-72
2024/03/11 03:41:31;;;;;;;19.23;11.80;;;;;;;15.01;63.04;99663.00;5024992;27;96904;-71
2024/03/11 03:43:59;;;;;;;25.35;12.27;;;;;;;15.05;62.87;99674.28;5027392;27;99090;-71
2024/03/11 03:46:26;;;;;;;20.95;11.75;;;;;;;14.93;63.52;99668.00;5019436;27;98845;-72
2024/03/11 03:48:55;;;;;;;20.48;12.10;;;;;;;15.02;63.01;99661.22;5027171;27;96849;-71
2024/03/11 03:51:24;;;;;;;19.00;11.70;;;;;;;15.02;63.19;99664.72;5025292;27;97042;-72
2024/03/11 03:53:50;;;;;;;20.25;12.45;;;;;;;14.95;63.36;99673.25;5028604;27;99219;-72
2024/03/11 03:56:17;;;;;;;18.27;11.68;;;;;;;14.79;63.78;99677.91;5026196;27;98275;-72
2024/03/11 03:58:44;;;;;;;22.73;12.05;;;;;;;14.95;63.50;99667.91;5023954;27;98492;-72
2024/03/11 04:01:10;;;;;;;17.65;11.77;;;;;;;14.99;63.50;99672.91;5029616;27;97107;-72
2024/03/11 04:03:37;;;;;;;19.05;11.52;;;;;;;14.90;63.91;99673.53;5026587;27;99349;-71
2024/03/11 04:06:05;;;;;;;19.55;11.88;;;;;;;15.03;63.58;99673.56;5026835;27;98460;-72
2024/03/11 04:08:32;;;;;;;23.40;12.77;;;;;;;14.95;63.73;99681.22;5023260;27;96809;-72
2024/03/11 04:10:59;;;;;;;20.05;11.52;;;;;;;14.98;63.73;99670.34;5025399;27;97053;-72
2024/03/11 04:13:26;;;;;;;19.88;12.65;;;;;;;14.92;63.92;99673.44;5025090;27;98860;-72
2024/03/11 04:15:56;;;;;;;24.88;13.00;;;;;;;14.70;65.03;99682.09;5020855;27;98817;-71
2024/03/11 04:18:23;;;;;;;20.33;12.85;;;;;;;14.70;65.17;99682.91;5023105;27;96835;-71
2024/03/11 04:20:50;;;;;;;23.40;12.25;;;;;;;14.65;65.17;99692.16;5027827;27;97293;-71
2024/03/11 04:23:17;;;;;;;20.90;11.23;;;;;;;14.80;64.68;99691.09;5025731;27;99216;-71
2024/03/11 04:25:45;;;;;;;24.90;13.13;;;;;;;14.88;64.35;99693.25;5029830;27;98979;-71
2024/03/11 04:28:13;;;;;;;18.42;11.50;;;;;;;14.82;64.65;99699.84;5029555;27;97944;-72
2024/03/11 04:30:40;;;;;;;22.40;12.30;;;;;;;14.75;64.99;99702.06;5030035;27;97707;-72
2024/03/11 04:33:07;;;;;;;19.00;11.80;;;;;;;14.79;65.03;99700.03;5029043;27;97927;-73
2024/03/11 04:35:35;;;;;;;20.98;12.65;;;;;;;14.88;64.60;99696.75;5024042;27;98855;-72
2024/03/11 04:38:04;;;;;;;18.85;11.95;;;;;;;14.93;64.41;99701.75;5034643;27;96825;-72
2024/03/11 04:40:32;;;;;;;21.08;12.55;;;;;;;15.03;63.98;99694.84;5031981;27;97044;-71
2024/03/11 04:43:03;;;;;;;21.33;12.05;;;;;;;14.77;65.33;99705.47;5026438;27;98972;-71
2024/03/11 04:45:30;;;;;;;19.10;11.98;;;;;;;14.65;65.46;99711.63;5023790;27;99361;-73
2024/03/11 04:47:58;;;;;;;20.17;12.23;;;;;;;14.80;65.20;99709.72;5023603;27;98808;-72
2024/03/11 04:50:25;;;;;;;20.38;11.93;;;;;;;14.98;64.45;99707.59;5025617;27;97048;-73
2024/03/11 04:52:51;;;;;;;20.33;12.05;;;;;;;14.97;64.48;99712.06;5026186;27;99808;-73
2024/03/11 04:55:18;;;;;;;20.55;12.43;;;;;;;15.04;64.03;99709.81;5025723;27;98827;-71
2024/03/11 04:57:45;;;;;;;19.40;11.57;;;;;;;15.07;64.01;99718.44;5023637;27;97081;-72
2024/03/11 05:00:14;;;;;;;20.67;11.40;;;;;;;15.28;63.33;99715.22;5028948;27;97276;-72
2024/03/11 05:02:40;;;;;;;22.35;12.13;;;;;;;14.89;64.17;99713.56;5022388;27;98959;-72
2024/03/11 05:05:08;;;;;;;21.30;11.90;;;;;;;15.07;64.52;99717.59;5027982;27;98431;-71
2024/03/11 05:07:34;;;;;;;19.35;11.55;;;;;;;15.23;63.50;99712.88;5024701;27;96797;-72
2024/03/11 05:10:01;;;;;;;19.92;11.50;;;;;;;15.05;64.35;99719.50;5023371;27;97078;-72
2024/03/11 05:12:28;;;;;;;17.33;10.95;;;;;;;15.06;64.42;99721.22;5025811;27;100343;-69
2024/03/11 05:14:54;;;;;;;21.13;11.80;;;;;;;14.90;64.99;99721.41;5024328;27;99266;-71
2024/03/11 05:17:22;;;;;;;18.45;11.85;;;;;;;15.11;64.24;99719.06;5021662;27;96822;-72
2024/03/11 05:19:48;;;;;;;21.38;11.82;;;;;;;14.94;64.91;99722.06;5023289;27;97342;-72
2024/03/11 05:22:15;;;;;;;19.67;11.80;;;;;;;14.96;64.96;99717.50;5024745;27;99702;-73
2024/03/11 05:24:42;;;;;;;19.30;11.75;;;;;;;15.02;64.79;99712.59;5023471;27;99010;-72
2024/03/11 05:27:08;;;;;;;18.30;11.10;;;;;;;15.16;64.17;99715.13;5022535;27;97200;-72
2024/03/11 05:29:35;;;;;;;21.45;11.23;;;;;;;14.98;64.84;99716.41;5023773;27;99438;-72
2024/03/11 05:32:03;;;;;;;17.33;11.48;;;;;;;14.97;65.13;99722.69;5026910;27;101419;-72
2024/03/11 05:34:31;;;;;;;18.83;11.35;;;;;;;15.07;64.81;99736.22;5024386;27;98838;-71
2024/03/11 05:36:57;;;;;;;28.67;12.32;;;;;;;15.02;65.05;99746.34;5027477;27;96772;-71
2024/03/11 05:39:23;;;;;;;20.48;11.82;;;;;;;15.02;64.88;99743.69;5021731;27;97459;-73
2024/03/11 05:41:50;;;;;;;19.30;11.55;;;;;;;15.11;64.88;99740.34;5024819;27;102513;-72
2024/03/11 05:44:19;;;;;;;19.13;11.77;;;;;;;14.90;65.71;99747.19;5023400;27;99223;-72
2024/03/11 05:46:45;;;;;;;19.35;11.50;;;;;;;15.02;65.50;99754.31;5019529;27;96830;-72
2024/03/11 05:49:13;;;;;;;18.80;11.32;;;;;;;14.97;65.47;99756.41;5023229;27;97011;-73
2024/03/11 05:51:41;;;;;;;19.08;11.23;;;;;;;14.96;65.79;99752.09;5018041;27;98903;-72
2024/03/11 05:54:07;;;;;;;18.38;11.35;;;;;;;15.13;64.92;99765.91;5024693;27;98414;-72
2024/03/11 05:56:36;;;;;;;21.30;11.45;;;;;;;15.01;65.57;99764.09;5024609;27;98589;-72
2024/03/11 05:59:03;;;;;;;17.75;11.18;;;;;;;15.17;65.02;99763.88;5019750;27;98177;-72
2024/03/11 06:01:30;;;;;;;18.35;11.45;;;;;;;15.06;65.28;99756.66;5016253;27;102371;-72
2024/03/11 06:03:57;;;;;;;20.00;11.45;;;;;;;15.13;65.33;99765.06;5023321;27;98065;-73
2024/03/11 06:06:23;;;;;;;21.92;11.65;;;;;;;15.37;64.29;99768.66;5021889;27;97228;-72
2024/03/11 06:08:51;;;;;;;16.92;10.82;;;;;;;15.39;64.03;99758.75;5019391;27;97295;-72
2024/03/11 06:11:17;;;;;;;20.63;11.55;;;;;;;15.52;63.66;99758.72;5020473;27;101484;-71
2024/03/11 06:13:43;;;;;;;19.38;11.63;;;;;;;15.47;63.91;99763.53;5019397;27;98856;-72
2024/03/11 06:16:12;;;;;;;18.75;11.65;;;;;;;15.61;63.42;99770.59;5020344;27;97051;-72
2024/03/11 06:18:39;;;;;;;17.80;10.77;;;;;;;15.45;63.85;99766.31;5019046;27;97698;-73
2024/03/11 06:21:06;;;;;;;20.67;11.48;;;;;;;15.61;63.36;99759.94;5019045;27;97728;-72
2024/03/11 06:23:33;;;;;;;18.95;11.82;;;;;;;15.50;63.58;99766.81;5017451;27;101217;-74
2024/03/11 06:26:03;;;;;;;18.67;11.43;;;;;;;15.26;64.48;99771.22;5019736;27;96818;-73
2024/03/11 06:28:29;;;;;;;21.27;11.55;;;;;;;15.36;64.33;99776.78;5023037;27;97214;-73
2024/03/11 06:30:56;;;;;;;16.77;11.25;;;;;;;15.32;64.70;99770.78;5022860;27;99398;-73
2024/03/11 06:33:23;;;;;;;16.98;11.00;;;;;;;15.54;63.91;99768.34;5021747;27;97576;-72
2024/03/11 06:35:49;;;;;;;21.63;11.75;;;;;;;15.46;64.23;99772.47;5025827;27;97885;-72
2024/03/11 06:38:16;;;;;;;16.55;11.18;;;;;;;15.51;64.41;99770.34;5023372;27;96899;-73
2024/03/11 06:40:43;;;;;;;15.90;11.27;;;;;;;15.53;64.29;99781.78;5022472;27;100831;-73
2024/03/11 06:43:11;;;;;;;21.67;11.60;;;;;;;15.39;64.26;99792.50;5016541;27;100497;-73
2024/03/11 06:45:38;;;;;;;15.93;11.13;;;;;;;15.55;64.19;99782.53;5022305;27;96888;-72
2024/03/11 06:48:06;;;;;;;18.38;10.85;;;;;;;15.52;64.25;99790.69;5023446;27;97056;-73
2024/03/11 06:50:33;;;;;;;28.17;11.63;;;;;;;15.38;64.94;99802.31;5020536;27;99275;-73
2024/03/11 06:53:01;;;;;;;20.17;11.15;;;;;;;15.38;64.70;99804.97;5024498;27;99180;-72
2024/03/11 06:55:28;;;;;;;22.98;11.43;;;;;;;15.25;65.57;99801.44;5021313;27;96777;-72
2024/03/11 06:57:54;;;;;;;17.20;10.75;;;;;;;15.40;65.22;99808.38;5021887;27;97364;-73
2024/03/11 07:00:25;;;;;;;20.65;10.50;;;;;;;15.59;64.29;99805.31;5021789;27;99374;-72
2024/03/11 07:02:52;;;;;;;16.80;10.48;;;;;;;15.73;63.77;99804.31;5020062;27;98850;-73
2024/03/11 07:05:26;;;;;;;25.08;11.75;;;;;;;15.73;63.56;99805.19;5019695;27;97512;-73
2024/03/11 07:07:54;;;;;;;16.20;10.27;;;;;;;15.86;63.22;99808.66;5022887;27;101910;-73
2024/03/11 07:10:21;;;;;;;21.02;11.80;;;;;;;15.63;63.74;99805.91;5024834;27;98880;-73
2024/03/11 07:12:47;;;;;;;16.63;10.35;;;;;;;15.74;63.70;99808.69;5029919;27;99814;-71
2024/03/11 07:15:14;;;;;;;19.58;9.88;;;;;;;15.69;63.85;99811.66;5026819;27;97447;-72
2024/03/11 07:17:42;;;;;;;19.08;10.27;;;;;;;15.56;64.53;99815.34;5021591;27;96778;-72
2024/03/11 07:20:12;;;;;;;16.90;10.55;;;;;;;15.73;63.83;99817.63;5024230;27;98886;-72
2024/03/11 07:22:39;;;;;;;15.75;10.85;;;;;;;15.90;62.93;99814.59;5019745;27;102039;-71
2024/03/11 07:25:09;;;;;;;17.88;10.95;;;;;;;16.12;62.63;99809.44;5029487;27;97151;-73
2024/03/11 07:27:37;;;;;;;18.67;11.10;;;;;;;16.30;61.77;99804.56;5025565;27;97210;-72
2024/03/11 07:30:10;;;;;;;18.48;11.25;;;;;;;16.09;62.51;99817.63;5026221;27;99869;-73
2024/03/11 07:32:37;;;;;;;18.15;11.13;;;;;;;15.93;62.79;99819.72;5024574;27;97590;-73
2024/03/11 07:35:06;;;;;;;24.70;11.50;;;;;;;16.25;62.09;99820.03;5025006;27;98509;-72
2024/03/11 07:37:36;;;;;;;18.92;10.73;;;;;;;16.33;61.46;99818.53;5025378;27;96780;-72
2024/03/11 07:40:06;;;;;;;19.75;10.88;;;;;;;16.23;61.56;99821.97;5028599;27;99311;-72
2024/03/11 07:42:32;;;;;;;20.27;10.55;;;;;;;16.22;61.55;99822.91;5021061;27;98772;-72
2024/03/11 07:44:59;;;;;;;26.75;11.35;;;;;;;15.84;62.99;99831.03;5027303;27;97748;-74
2024/03/11 07:47:28;;;;;;;16.00;10.48;;;;;;;15.97;62.62;99841.66;5021775;27;97721;-72
2024/03/11 07:49:57;;;;;;;19.52;10.98;;;;;;;16.14;62.23;99827.97;5024581;27;98597;-72
2024/03/11 07:52:25;;;;;;;19.10;11.15;;;;;;;16.05;62.44;99840.16;5025722;27;98925;-72
2024/03/11 07:54:54;;;;;;;17.30;10.25;;;;;;;16.23;61.83;99835.28;5032022;27;97383;-73
2024/03/11 07:57:21;;;;;;;20.67;11.98;;;;;;;16.13;62.23;99831.59;5027676;27;98144;-71
2024/03/11 07:59:47;;;;;;;17.25;10.88;;;;;;;16.44;61.53;99847.06;5034281;27;98918;-72
2024/03/11 08:02:15;;;;;;;21.10;11.25;;;;;;;16.17;61.96;99857.91;5030237;27;99499;-72
2024/03/11 08:04:41;;;;;;;20.38;11.27;;;;;;;16.19;62.06;99858.66;5029734;27;96959;-73
2024/03/11 08:07:08;;;;;;;18.83;10.82;;;;;;;16.19;62.08;99864.00;5027479;27;96819;-72
2024/03/11 08:09:37;;;;;;;18.27;11.70;;;;;;;16.06;62.20;99870.31;5029969;27;98902;-71
2024/03/11 08:12:05;;;;;;;17.27;10.55;;;;;;;16.08;62.30;99876.41;5018693;27;101143;-72
2024/03/11 08:14:32;;;;;;;19.35;10.85;;;;;;;15.97;62.78;99885.16;5023632;27;98343;-72
2024/03/11 08:16:58;;;;;;;18.48;12.57;;;;;;;16.14;62.32;99887.47;5014300;27;97704;-73
2024/03/11 08:19:25;;;;;;;24.60;11.60;;;;;;;16.17;62.06;99886.38;5021074;27;99312;-73
2024/03/11 08:21:57;;;;;;;20.73;11.70;;;;;;;16.25;61.74;99894.69;5020537;27;99596;-73
2024/03/11 08:24:24;;;;;;;18.23;11.95;;;;;;;16.47;60.92;99886.84;5021911;27;97450;-73
2024/03/11 08:26:52;;;;;;;19.75;11.65;;;;;;;16.24;61.56;99893.81;5019312;27;97704;-73
2024/03/11 08:29:18;;;;;;;21.52;12.60;;;;;;;16.15;61.92;99902.47;5019934;27;98557;-77
2024/03/11 08:31:47;;;;;;;17.73;11.63;;;;;;;16.18;62.12;99902.28;5023077;27;97492;-75
2024/03/11 08:34:13;;;;;;;26.02;12.25;;;;;;;16.12;62.50;99905.38;5025563;27;98580;-72
2024/03/11 08:36:41;;;;;;;22.10;12.32;;;;;;;16.30;61.81;99911.19;5022072;27;97768;-72
2024/03/11 08:39:10;;;;;;;23.02;12.70;;;;;;;16.43;60.99;99911.16;5029122;27;98253;-74
2024/03/11 08:41:37;;;;;;;20.48;12.00;;;;;;;16.36;61.29;99913.41;5020242;27;99012;-72
2024/03/11 08:44:07;;;;;;;20.10;11.65;;;;;;;16.22;61.63;99922.41;5021781;27;97459;-73
2024/03/11 08:46:34;;;;;;;25.35;13.57;;;;;;;16.38;61.27;99916.81;5020944;27;97447;-73
2024/03/11 08:49:00;;;;;;;24.27;12.98;;;;;;;16.18;61.70;99926.25;5021659;27;98900;-73
2024/03/11 08:51:27;;;;;;;19.85;13.07;;;;;;;16.01;61.96;99923.09;5019950;27;99089;-73
2024/03/11 08:53:53;;;;;;;23.98;13.07;;;;;;;16.04;62.36;99928.19;5026375;27;98447;-72
2024/03/11 08:56:21;;;;;;;22.52;14.00;;;;;;;15.92;62.63;99924.59;5017381;27;97591;-73
2024/03/11 08:58:50;;;;;;;25.25;13.88;;;;;;;16.22;62.01;99933.06;5014295;27;99233;-73
2024/03/11 09:01:19;;;;;;;24.95;14.57;;;;;;;16.17;61.38;99940.53;5023452;27;98960;-72
2024/03/11 09:03:46;;;;;;;25.52;16.23;;;;;;;16.16;61.41;99940.66;5020177;27;96874;-73
2024/03/11 09:06:13;;;;;;;24.92;16.27;;;;;;;16.02;61.88;99941.63;5020479;27;98045;-73
2024/03/11 09:08:39;;;;;;;28.08;16.45;;;;;;;16.29;61.23;99945.00;5024619;27;99372;-73
2024/03/11 09:11:06;;;;;;;26.52;15.90;;;;;;;16.62;59.80;99935.53;5025393;27;98861;-73
2024/03/11 09:13:33;;;;;;;25.45;16.08;;;;;;;16.76;59.09;99946.06;5023584;27;97474;-73
2024/03/11 09:15:59;;;;;;;29.63;16.48;;;;;;;16.61;59.46;99944.50;5018119;27;97084;-71
2024/03/11 09:18:28;;;;;;;30.65;17.02;;;;;;;16.58;59.53;99956.25;5017367;27;98994;-72
2024/03/11 09:20:55;;;;;;;27.95;17.52;;;;;;;16.76;58.76;99951.41;5020821;27;98892;-72
2024/03/11 09:23:22;;;;;;;26.88;19.45;;;;;;;16.59;57.90;99957.09;5021092;27;97872;-73
2024/03/11 09:25:48;;;;;;;29.38;20.05;;;;;;;16.55;57.84;99966.25;5022283;27;96957;-73
2024/03/11 09:28:17;;;;;;;29.20;20.00;;;;;;;16.38;58.25;99970.16;5020401;27;99547;-73
2024/03/11 09:30:44;;;;;;;28.25;20.52;;;;;;;16.50;57.66;99973.75;5021976;27;101995;-73
2024/03/11 09:33:11;;;;;;;28.90;19.85;;;;;;;16.80;57.04;99971.56;5022408;27;97836;-73
2024/03/11 09:35:39;;;;;;;30.65;20.23;;;;;;;16.83;56.59;99973.13;5021247;27;96978;-73
2024/03/11 09:38:05;;;;;;;29.48;21.50;;;;;;;16.76;56.73;99974.56;5024867;27;99115;-73
2024/03/11 09:40:32;;;;;;;29.10;20.20;;;;;;;16.82;56.32;99979.44;5022208;27;99077;-73
2024/03/11 09:43:00;;;;;;;28.10;20.70;;;;;;;16.77;56.01;99973.59;5025191;27;97355;-74
2024/03/11 09:45:28;;;;;;;26.45;19.30;;;;;;;16.96;55.42;99982.81;5018722;27;99282;-73
2024/03/11 09:47:56;;;;;;;28.52;20.40;;;;;;;16.83;55.69;99994.50;5020833;27;100194;-72
2024/03/11 09:50:27;;;;;;;30.52;20.90;;;;;;;17.03;55.26;100002.75;5023906;27;97569;-73
2024/03/11 09:52:58;;;;;;;31.25;21.13;;;;;;;16.79;55.73;100012.56;5030248;27;97333;-71
2024/03/11 09:55:28;;;;;;;30.13;20.63;;;;;;;17.00;55.10;100012.81;5024821;27;96854;-71
2024/03/11 09:57:59;;;;;;;27.48;19.85;;;;;;;16.77;54.77;100016.28;5023057;27;100225;-70
2024/03/11 10:00:27;;;;;;;30.20;20.92;;;;;;;16.88;55.02;100027.88;5020916;27;99256;-72
2024/03/11 10:02:59;;;;;;;34.95;19.85;;;;;;;16.91;54.72;100037.47;5020092;27;97291;-72
2024/03/11 10:05:27;;;;;;;27.40;20.15;;;;;;;16.52;55.80;100030.50;5022320;27;98196;-73
2024/03/11 10:07:54;;;;;;;30.98;21.02;;;;;;;16.50;55.83;100033.28;5020889;27;99421;-73
2024/03/11 10:10:24;;;;;;;30.40;21.02;;;;;;;16.51;55.97;100032.31;5019851;28;97726;-72
2024/03/11 10:12:52;;;;;;;27.52;20.52;;;;;;;16.66;55.31;100033.06;5016261;27;96865;-72
2024/03/11 10:15:28;;;;;;;28.38;20.08;;;;;;;17.08;54.56;100040.63;5022038;27;97512;-72
2024/03/11 10:17:56;;;;;;;26.80;19.77;;;;;;;17.68;53.11;100036.19;5017622;27;99327;-73
2024/03/11 10:20:24;;;;;;;34.97;20.33;;;;;;;17.74;51.79;100041.06;5027307;27;97601;-72
2024/03/11 10:22:50;;;;;;;28.67;20.10;;;;;;;17.69;51.68;100035.22;5019911;27;98183;-72
2024/03/11 10:25:27;;;;;;;30.77;20.95;;;;;;;17.91;51.42;100046.00;5024058;27;97102;-73
2024/03/11 10:27:55;;;;;;;28.35;19.65;;;;;;;17.87;51.32;100040.00;5024988;27;99105;-72
2024/03/11 10:30:23;;;;;;;29.55;20.17;;;;;;;18.05;50.76;100048.41;5024071;27;99251;-72
2024/03/11 10:32:55;;;;;;;25.55;18.00;;;;;;;17.66;50.83;100052.31;5023400;27;97120;-72
2024/03/11 10:35:22;;;;;;;26.77;18.33;;;;;;;17.60;51.26;100060.75;5026672;28;96793;-73
2024/03/11 10:37:50;;;;;;;26.20;18.50;;;;;;;17.52;51.14;100052.50;5017867;27;100320;-72
2024/03/11 10:40:18;;;;;;;25.40;18.30;;;;;;;17.80;50.76;100051.28;5027247;27;99707;-73
2024/03/11 10:42:53;;;;;;;26.38;18.38;;;;;;;17.28;51.69;100062.31;5023353;27;96858;-73
2024/03/11 10:45:38;;;;;;;25.65;18.83;;;;;;;17.07;52.56;100065.59;5026196;27;96905;-72
2024/03/11 10:48:09;;;;;;;30.63;19.30;;;;;;;17.19;52.29;100071.03;5026199;27;97845;-72
2024/03/11 10:50:43;;;;;;;29.92;18.80;;;;;;;17.48;51.75;100056.34;5022193;27;98793;-72
2024/03/11 10:53:22;;;;;;;27.13;18.73;;;;;;;17.85;50.38;100068.66;5029748;27;97110;-72
2024/03/11 10:55:55;;;;;;;27.42;19.92;;;;;;;17.42;51.66;100068.34;5028710;27;97352;-72
2024/03/11 10:58:25;;;;;;;33.60;19.00;;;;;;;17.69;51.07;100062.78;5020599;27;99043;-72
2024/03/11 11:00:54;;;;;;;25.90;19.17;;;;;;;17.57;51.08;100066.34;5027081;27;99019;-72
2024/03/11 11:03:23;;;;;;;27.63;18.45;;;;;;;17.80;50.36;100075.31;5018676;28;97467;-71
2024/03/11 11:05:52;;;;;;;43.13;19.63;;;;;;;17.52;51.59;100081.88;5029968;27;97023;-71
2024/03/11 11:08:22;;;;;;;28.30;19.35;;;;;;;17.58;51.39;100080.56;5028006;27;98200;-72
2024/03/11 11:10:51;;;;;;;25.58;19.60;;;;;;;17.56;50.93;100078.00;5027556;27;98856;-73
2024/03/11 11:13:19;;;;;;;29.50;19.13;;;;;;;17.56;51.24;100072.66;5023746;27;96740;-72
2024/03/11 11:15:48;;;;;;;27.33;18.25;;;;;;;17.62;51.01;100079.41;5027351;27;96794;-72
2024/03/11 11:18:16;;;;;;;27.42;20.23;;;;;;;17.89;50.21;100075.50;5025165;27;98918;-72
2024/03/11 11:20:47;;;;;;;23.80;18.23;;;;;;;18.18;49.17;100083.09;5021699;27;98880;-72